Terminal Aerodrome Forecast
Issued by NWS Huntsville, AL

Home | Current Version | Previous Version | Text Only | Print | Product List | Glossary On
Versions: 1 2 3 4 5 6 7 8 9 10 11 12 13 14 15 16 17 18 19 20 21 22 23 24 25 26 27 28 29 30 31 32 33 34 35 36 37 38
000
FTUS44 KHUN 221330 AAA
TAFHSV
TAF AMD
KHSV 221330Z 2214/2312 12005KT P6SM BKN025
     FM221500 15005KT P6SM VCSH BKN030
     FM221900 15005KT 5SM -SHRA BR BKN040
      TEMPO 2219/2223 5SM -TSRA BR BKN025CB
     FM222300 15005KT P6SM BKN250=

USA.gov is the U.S. government's official web portal to all federal, state and local government web resources and services.